Visit the IPS Meteostar Home Page 2IPSM Phoenix Sky Harbor International Airport FORECAST

Phoenix, Arizona

2 miles away at Phoenix Sky Harbor International Airport 10:51 GMT

Weather:

Clear

Wind:

ENE 9 mph

Temperature:

79 ° F

Pressure:

29.75

Dew Point:

29 ° F

Relative Humidity:

15

Feels Like:

79 ° F

Visibility:

10 miles


Aviation Observations:

KPHX 301051Z 07008KT 10SM FEW250 26/M02 A2978 RMK AO2 SLP065 T02611017 =

National Weather Service Forecast:
Greater Phoenix Area


Visit the IPS Meteostar Home Page